Terminal Aerodrome Forecast
Issued by NWS

Home | Current Version | Previous Version | Text Only | Print | Product List | Glossary On
Versions: 1 2 3 4 5 6 7 8 9 10 11 12 13 14 15 16 17 18
959
FTAK31 PAJN 261802 AAA
TAFASI
TAF AMD
PASI 261802Z 2618/2718 16012G18KT 4SM -RA BR BKN010 OVC020
      WS020/20025KT
     FM262000 18009KT 5SM -RA BR BKN015 OVC025
     FM270000 17010KT 4SM RA BR SCT007 OVC015
     FM271200 16013KT 5SM -RA BR BKN007 OVC015=

USA.gov is the U.S. government's official web portal to all federal, state and local government web resources and services.